Time,TemperatureF,DewpointF,PressureIn,WindDirection,WindDirectionDegrees,WindSpeedMPH,WindSpeedGustMPH,Humidity,HourlyPrecipIn,Conditions,Clouds,dailyrainin,SoftwareType,DateUTC
2013-05-07 00:01:00,55.3,50.1,30.12,WNW,293,2.5,2.9,83,0.00,,,0.00,WUHU216HW,2013-05-07 05:01:00,
2013-05-07 00:06:00,55.3,50.1,30.11,WNW,293,2.2,2.9,83,0.00,,,0.00,WUHU216HW,2013-05-07 05:06:00,
2013-05-07 00:11:00,55.3,50.5,30.12,WNW,293,2.7,2.7,84,0.00,,,0.00,WUHU216HW,2013-05-07 05:11:00,
2013-05-07 00:16:00,55.1,50.0,30.11,NW,315,1.1,2.7,83,0.00,,,0.00,WUHU216HW,2013-05-07 05:16:00,
2013-05-07 00:21:00,54.9,49.8,30.11,WNW,293,2.2,2.2,83,0.00,,,0.00,WUHU216HW,2013-05-07 05:21:00,
2013-05-07 00:26:00,54.9,50.1,30.11,WNW,293,1.8,2.5,84,0.00,,,0.00,WUHU216HW,2013-05-07 05:26:00,
2013-05-07 00:31:00,54.7,50.0,30.11,NW,315,1.8,2.5,84,0.00,,,0.00,WUHU216HW,2013-05-07 05:31:00,
2013-05-07 00:36:00,54.7,50.0,30.11,North,0,0.4,2.5,84,0.00,,,0.00,WUHU216HW,2013-05-07 05:36:00,
2013-05-07 00:41:00,54.7,49.6,30.12,NW,315,1.1,2.0,83,0.00,,,0.00,WUHU216HW,2013-05-07 05:41:00,
2013-05-07 00:46:00,54.7,49.6,30.11,WNW,293,1.8,1.8,83,0.00,,,0.00,WUHU216HW,2013-05-07 05:46:00,
2013-05-07 00:51:00,54.4,49.3,30.12,West,270,1.1,1.8,83,0.00,,,0.00,WUHU216HW,2013-05-07 05:51:00,
2013-05-07 00:56:00,54.2,49.2,30.12,WNW,293,0.9,1.8,83,0.00,,,0.00,WUHU216HW,2013-05-07 05:56:00,
2013-05-07 01:01:00,54.0,49.0,30.12,NW,315,1.1,1.3,83,0.00,,,0.00,WUHU216HW,2013-05-07 06:01:00,
2013-05-07 01:06:00,54.0,49.0,30.12,WNW,293,1.3,1.3,83,0.00,,,0.00,WUHU216HW,2013-05-07 06:06:00,
2013-05-07 01:11:00,53.8,49.1,30.11,WNW,293,2.0,2.2,84,0.00,,,0.00,WUHU216HW,2013-05-07 06:11:00,
2013-05-07 01:16:00,53.6,49.0,30.11,WNW,293,0.9,2.2,84,0.00,,,0.00,WUHU216HW,2013-05-07 06:16:00,
2013-05-07 01:21:00,53.6,49.0,30.12,NW,315,1.1,2.0,84,0.00,,,0.00,WUHU216HW,2013-05-07 06:21:00,
2013-05-07 01:26:00,53.5,48.8,30.12,WNW,293,1.1,1.1,84,0.00,,,0.00,WUHU216HW,2013-05-07 06:26:00,
2013-05-07 01:31:00,53.3,48.6,30.12,West,270,0.4,1.1,84,0.00,,,0.00,WUHU216HW,2013-05-07 06:31:00,
2013-05-07 01:36:00,53.1,48.4,30.11,West,270,0.0,0.4,84,0.00,,,0.00,WUHU216HW,2013-05-07 06:36:00,
2013-05-07 01:41:00,53.1,48.4,30.11,NW,315,0.7,0.7,84,0.00,,,0.00,WUHU216HW,2013-05-07 06:41:00,
2013-05-07 01:46:00,52.9,48.3,30.11,NNW,338,0.0,0.9,84,0.00,,,0.00,WUHU216HW,2013-05-07 06:46:00,
2013-05-07 01:51:00,52.9,48.3,30.11,NNW,338,0.2,0.9,84,0.00,,,0.00,WUHU216HW,2013-05-07 06:51:00,
2013-05-07 01:56:00,52.6,47.9,30.11,North,0,0.0,0.2,84,0.00,,,0.00,WUHU216HW,2013-05-07 06:56:00,
2013-05-07 02:01:00,52.4,47.7,30.11,West,270,0.0,0.0,84,0.00,,,0.00,WUHU216HW,2013-05-07 07:01:00,
2013-05-07 02:06:00,52.4,47.7,30.11,West,270,0.0,0.0,84,0.00,,,0.00,WUHU216HW,2013-05-07 07:06:00,
2013-05-07 02:11:00,52.2,47.8,30.11,West,270,0.4,0.9,85,0.00,,,0.00,WUHU216HW,2013-05-07 07:11:00,
2013-05-07 02:16:00,52.2,47.8,30.11,West,270,0.0,0.9,85,0.00,,,0.00,WUHU216HW,2013-05-07 07:16:00,
2013-05-07 02:21:00,52.0,47.9,30.11,WNW,293,1.1,1.1,86,0.00,,,0.00,WUHU216HW,2013-05-07 07:21:00,
2013-05-07 02:26:00,51.8,47.7,30.11,NW,315,0.4,1.1,86,0.00,,,0.00,WUHU216HW,2013-05-07 07:26:00,
2013-05-07 02:31:00,51.8,47.7,30.10,NW,315,0.0,1.1,86,0.00,,,0.00,WUHU216HW,2013-05-07 07:31:00,
2013-05-07 02:36:00,51.7,47.5,30.10,WNW,293,0.0,0.2,86,0.00,,,0.00,WUHU216HW,2013-05-07 07:36:00,
2013-05-07 02:41:00,51.7,47.5,30.10,WNW,293,0.0,0.0,86,0.00,,,0.00,WUHU216HW,2013-05-07 07:41:00,
2013-05-07 02:47:00,51.5,47.3,30.10,West,270,0.4,0.7,86,0.00,,,0.00,WUHU216HW,2013-05-07 07:47:00,
2013-05-07 02:52:00,51.5,47.3,30.10,West,270,0.0,0.4,86,0.00,,,0.00,WUHU216HW,2013-05-07 07:52:00,
2013-05-07 02:57:00,51.3,47.2,30.10,West,270,0.0,0.2,86,0.00,,,0.00,WUHU216HW,2013-05-07 07:57:00,
2013-05-07 03:02:00,51.1,46.7,30.10,West,270,0.0,0.0,85,0.00,,,0.00,WUHU216HW,2013-05-07 08:02:00,
2013-05-07 03:07:00,50.9,46.8,30.10,WSW,248,0.0,0.0,86,0.00,,,0.00,WUHU216HW,2013-05-07 08:07:00,
2013-05-07 03:12:00,50.8,46.6,30.09,West,270,0.0,0.0,86,0.00,,,0.00,WUHU216HW,2013-05-07 08:12:00,
2013-05-07 03:17:00,50.8,46.6,30.10,North,0,0.0,0.2,86,0.00,,,0.00,WUHU216HW,2013-05-07 08:17:00,
2013-05-07 03:22:00,50.6,46.4,30.10,North,0,0.0,0.2,86,0.00,,,0.00,WUHU216HW,2013-05-07 08:22:00,
2013-05-07 03:27:00,50.4,46.0,30.09,North,0,0.2,0.2,85,0.00,,,0.00,WUHU216HW,2013-05-07 08:27:00,
2013-05-07 03:32:00,50.4,46.0,30.09,North,0,0.0,0.2,85,0.00,,,0.00,WUHU216HW,2013-05-07 08:32:00,
2013-05-07 03:37:00,50.2,46.1,30.09,WNW,293,0.0,0.2,86,0.00,,,0.00,WUHU216HW,2013-05-07 08:37:00,
2013-05-07 03:42:00,50.0,45.9,30.09,WNW,293,0.0,0.0,86,0.00,,,0.00,WUHU216HW,2013-05-07 08:42:00,
2013-05-07 03:47:00,49.9,45.8,30.09,WNW,293,0.0,0.0,86,0.00,,,0.00,WUHU216HW,2013-05-07 08:47:00,
2013-05-07 03:52:00,49.7,45.6,30.09,NW,315,0.0,0.0,86,0.00,,,0.00,WUHU216HW,2013-05-07 08:52:00,
2013-05-07 03:57:00,49.7,45.6,30.09,NW,315,0.0,0.0,86,0.00,,,0.00,WUHU216HW,2013-05-07 08:57:00,
2013-05-07 04:02:00,49.5,45.1,30.09,NW,315,0.0,0.0,85,0.00,,,0.00,WUHU216HW,2013-05-07 09:02:00,
2013-05-07 04:07:00,49.3,44.9,30.08,NW,315,0.0,0.0,85,0.00,,,0.00,WUHU216HW,2013-05-07 09:07:00,
2013-05-07 04:12:00,49.3,44.9,30.09,NW,315,0.0,0.0,85,0.00,,,0.00,WUHU216HW,2013-05-07 09:12:00,
2013-05-07 04:17:00,49.3,44.9,30.09,NW,315,0.0,0.0,85,0.00,,,0.00,WUHU216HW,2013-05-07 09:17:00,
2013-05-07 04:22:00,49.1,44.8,30.09,NW,315,0.4,0.4,85,0.00,,,0.00,WUHU216HW,2013-05-07 09:22:00,
2013-05-07 04:27:00,49.3,44.9,30.09,NW,315,0.4,0.4,85,0.00,,,0.00,WUHU216HW,2013-05-07 09:27:00,
2013-05-07 04:32:00,49.3,44.9,30.09,NW,315,0.0,0.4,85,0.00,,,0.00,WUHU216HW,2013-05-07 09:32:00,
2013-05-07 04:37:00,49.3,44.9,30.09,WNW,293,0.4,0.9,85,0.00,,,0.00,WUHU216HW,2013-05-07 09:37:00,
2013-05-07 04:42:00,49.1,45.1,30.09,West,270,1.1,1.1,86,0.00,,,0.00,WUHU216HW,2013-05-07 09:42:00,
2013-05-07 04:47:00,49.0,45.3,30.09,WNW,293,1.8,1.8,87,0.00,,,0.00,WUHU216HW,2013-05-07 09:47:00,
2013-05-07 04:52:00,48.8,45.1,30.09,WNW,293,1.8,1.8,87,0.00,,,0.00,WUHU216HW,2013-05-07 09:52:00,
2013-05-07 04:57:00,48.2,44.9,30.09,West,270,1.1,1.8,88,0.00,,,0.00,WUHU216HW,2013-05-07 09:57:00,
2013-05-07 05:02:00,48.1,44.7,30.10,WNW,293,1.3,1.8,88,0.00,,,0.00,WUHU216HW,2013-05-07 10:02:00,
2013-05-07 05:07:00,48.2,44.9,30.10,WNW,293,1.6,1.8,88,0.00,,,0.00,WUHU216HW,2013-05-07 10:07:00,
2013-05-07 05:12:00,48.4,45.1,30.10,NW,315,1.6,1.8,88,0.00,,,0.00,WUHU216HW,2013-05-07 10:12:00,
2013-05-07 05:17:00,49.0,45.5,30.10,WNW,293,1.1,1.8,88,0.00,,,0.00,WUHU216HW,2013-05-07 10:17:00,
2013-05-07 05:22:00,49.0,45.5,30.10,NW,315,1.1,1.6,88,0.00,,,0.00,WUHU216HW,2013-05-07 10:22:00,
2013-05-07 05:27:00,49.0,45.5,30.09,NNW,338,0.2,1.6,88,0.00,,,0.00,WUHU216HW,2013-05-07 10:27:00,
2013-05-07 05:32:00,48.8,45.4,30.09,NNW,338,0.0,1.1,88,0.00,,,0.00,WUHU216HW,2013-05-07 10:32:00,
2013-05-07 05:37:00,48.4,45.1,30.10,NNW,338,0.0,0.2,88,0.00,,,0.00,WUHU216HW,2013-05-07 10:37:00,
2013-05-07 05:42:00,48.4,45.1,30.10,NNW,338,0.0,0.0,88,0.00,,,0.00,WUHU216HW,2013-05-07 10:42:00,
2013-05-07 05:47:00,48.2,44.9,30.10,NNW,338,0.0,0.0,88,0.00,,,0.00,WUHU216HW,2013-05-07 10:47:00,
2013-05-07 05:52:00,48.1,44.4,30.10,WNW,293,0.7,0.7,87,0.00,,,0.00,WUHU216HW,2013-05-07 10:52:00,
2013-05-07 05:57:00,47.9,44.2,30.10,WNW,293,0.9,0.9,87,0.00,,,0.00,WUHU216HW,2013-05-07 10:57:00,
2013-05-07 06:02:00,47.9,44.2,30.09,West,270,0.2,0.9,87,0.00,,,0.00,WUHU216HW,2013-05-07 11:02:00,
2013-05-07 06:07:00,47.9,44.2,30.10,West,270,0.0,0.7,87,0.00,,,0.00,WUHU216HW,2013-05-07 11:07:00,
2013-05-07 06:12:00,47.9,44.2,30.10,West,270,0.0,0.2,87,0.00,,,0.00,WUHU216HW,2013-05-07 11:12:00,
2013-05-07 06:17:00,47.7,44.0,30.10,WNW,293,0.0,0.0,87,0.00,,,0.00,WUHU216HW,2013-05-07 11:17:00,
2013-05-07 06:22:00,47.7,44.0,30.10,WNW,293,0.0,0.0,87,0.00,,,0.00,WUHU216HW,2013-05-07 11:22:00,
2013-05-07 06:27:00,47.5,43.8,30.10,WNW,293,0.0,0.0,87,0.00,,,0.00,WUHU216HW,2013-05-07 11:27:00,
2013-05-07 06:32:00,47.5,43.8,30.10,WNW,293,0.0,0.0,87,0.00,,,0.00,WUHU216HW,2013-05-07 11:32:00,
2013-05-07 06:37:00,47.5,43.8,30.10,West,270,0.0,0.0,87,0.00,,,0.00,WUHU216HW,2013-05-07 11:37:00,
2013-05-07 06:42:00,47.5,44.2,30.10,West,270,0.7,1.1,88,0.00,,,0.00,WUHU216HW,2013-05-07 11:42:00,
2013-05-07 06:47:00,47.7,44.4,30.11,West,270,1.3,1.6,88,0.00,,,0.00,WUHU216HW,2013-05-07 11:47:00,
2013-05-07 06:52:00,47.7,44.4,30.10,West,270,1.1,1.6,88,0.00,,,0.00,WUHU216HW,2013-05-07 11:52:00,
2013-05-07 06:57:00,48.1,45.0,30.11,West,270,1.1,1.1,89,0.00,,,0.00,WUHU216HW,2013-05-07 11:57:00,
2013-05-07 07:02:00,48.2,45.2,30.11,West,270,0.2,1.1,89,0.00,,,0.00,WUHU216HW,2013-05-07 12:02:00,
2013-05-07 07:07:00,48.4,45.1,30.11,West,270,0.0,0.7,88,0.00,,,0.00,WUHU216HW,2013-05-07 12:07:00,
2013-05-07 07:12:00,48.6,45.2,30.11,West,270,0.0,0.2,88,0.00,,,0.00,WUHU216HW,2013-05-07 12:12:00,
2013-05-07 07:17:00,49.0,45.5,30.11,West,270,0.2,0.9,88,0.00,,,0.00,WUHU216HW,2013-05-07 12:17:00,
2013-05-07 07:22:00,49.3,46.2,30.11,West,270,0.0,0.9,89,0.00,,,0.00,WUHU216HW,2013-05-07 12:22:00,
2013-05-07 07:27:00,49.7,46.3,30.12,West,270,0.0,0.4,88,0.00,,,0.00,WUHU216HW,2013-05-07 12:27:00,
2013-05-07 07:32:00,50.0,46.5,30.12,West,270,0.0,0.4,88,0.00,,,0.00,WUHU216HW,2013-05-07 12:32:00,
2013-05-07 07:37:00,50.8,47.6,30.12,West,270,0.0,0.4,89,0.00,,,0.00,WUHU216HW,2013-05-07 12:37:00,
2013-05-07 07:42:00,51.3,48.2,30.12,WSW,248,0.4,0.9,89,0.00,,,0.00,WUHU216HW,2013-05-07 12:42:00,
2013-05-07 07:47:00,51.5,48.6,30.12,WNW,293,1.1,1.1,90,0.00,,,0.00,WUHU216HW,2013-05-07 12:47:00,
2013-05-07 07:52:00,52.9,50.3,30.12,WNW,293,1.8,1.8,91,0.00,,,0.00,WUHU216HW,2013-05-07 12:52:00,
2013-05-07 07:57:00,53.3,50.7,30.12,WNW,293,1.1,1.8,91,0.00,,,0.00,WUHU216HW,2013-05-07 12:57:00,
2013-05-07 08:02:00,56.2,53.3,30.13,NNW,338,1.6,1.6,90,0.00,,,0.00,WUHU216HW,2013-05-07 13:02:00,
2013-05-07 08:07:00,58.1,54.6,30.13,NW,315,0.7,1.8,88,0.00,,,0.00,WUHU216HW,2013-05-07 13:07:00,
2013-05-07 08:11:00,59.8,55.6,30.12,NNW,338,1.1,2.5,86,0.00,,,0.00,WUHU216HW,2013-05-07 13:11:00,
2013-05-07 08:16:00,61.0,56.2,30.13,WNW,293,3.1,3.1,84,0.00,,,0.00,WUHU216HW,2013-05-07 13:16:00,
2013-05-07 08:21:00,61.6,56.1,30.13,NW,315,2.9,3.4,82,0.00,,,0.00,WUHU216HW,2013-05-07 13:21:00,
2013-05-07 08:26:00,61.9,56.1,30.13,NNW,338,2.7,4.3,81,0.00,,,0.00,WUHU216HW,2013-05-07 13:26:00,
2013-05-07 08:31:00,61.7,55.5,30.13,WNW,293,3.6,4.3,80,0.00,,,0.00,WUHU216HW,2013-05-07 13:31:00,
2013-05-07 08:36:00,61.6,55.4,30.13,WNW,293,3.4,4.3,80,0.00,,,0.00,WUHU216HW,2013-05-07 13:36:00,
2013-05-07 08:41:00,61.7,55.5,30.13,WNW,293,3.4,4.3,80,0.00,,,0.00,WUHU216HW,2013-05-07 13:41:00,
2013-05-07 08:46:00,62.1,55.9,30.13,NW,315,3.4,4.0,80,0.00,,,0.00,WUHU216HW,2013-05-07 13:46:00,
2013-05-07 08:51:00,62.3,55.6,30.13,NNW,338,2.2,3.4,79,0.00,,,0.00,WUHU216HW,2013-05-07 13:51:00,
2013-05-07 08:56:00,62.6,56.0,30.13,WNW,293,3.4,3.4,79,0.00,,,0.00,WUHU216HW,2013-05-07 13:56:00,
2013-05-07 09:01:00,63.0,56.3,30.13,North,0,2.9,3.6,79,0.00,,,0.00,WUHU216HW,2013-05-07 14:01:00,
2013-05-07 09:06:00,63.7,57.1,30.14,WNW,293,3.6,3.6,79,0.00,,,0.00,WUHU216HW,2013-05-07 14:06:00,
2013-05-07 09:11:00,63.7,56.7,30.13,WNW,293,1.1,3.6,78,0.00,,,0.00,WUHU216HW,2013-05-07 14:11:00,
2013-05-07 09:16:00,63.9,56.9,30.14,NNW,338,1.1,3.6,78,0.00,,,0.00,WUHU216HW,2013-05-07 14:16:00,
2013-05-07 09:21:00,65.7,58.3,30.14,North,0,3.1,3.1,77,0.00,,,0.00,WUHU216HW,2013-05-07 14:21:00,
2013-05-07 09:26:00,67.3,58.8,30.13,North,0,1.3,3.1,74,0.00,,,0.00,WUHU216HW,2013-05-07 14:26:00,
2013-05-07 09:31:00,68.4,59.8,30.13,NNW,338,2.9,2.9,74,0.00,,,0.00,WUHU216HW,2013-05-07 14:31:00,
2013-05-07 09:36:00,68.8,59.4,30.13,NNW,338,1.6,2.9,72,0.00,,,0.00,WUHU216HW,2013-05-07 14:36:00,
2013-05-07 09:41:00,69.1,59.3,30.13,NNW,338,1.1,1.8,71,0.00,,,0.00,WUHU216HW,2013-05-07 14:41:00,
2013-05-07 09:46:00,69.3,58.2,30.13,WNW,293,2.0,3.4,68,0.00,,,0.00,WUHU216HW,2013-05-07 14:46:00,
2013-05-07 09:51:00,68.8,56.5,30.13,West,270,1.6,3.4,65,0.00,,,0.00,WUHU216HW,2013-05-07 14:51:00,
2013-05-07 09:57:00,68.4,57.4,30.13,NW,315,3.1,3.1,68,0.00,,,0.00,WUHU216HW,2013-05-07 14:57:00,
2013-05-07 10:02:00,68.4,56.6,30.13,WNW,293,2.0,4.3,66,0.00,,,0.00,WUHU216HW,2013-05-07 15:02:00,
2013-05-07 10:07:00,68.4,57.4,30.13,NW,315,1.3,4.3,68,0.00,,,0.00,WUHU216HW,2013-05-07 15:07:00,
2013-05-07 10:12:00,69.1,57.7,30.13,WSW,248,1.8,2.5,67,0.00,,,0.00,WUHU216HW,2013-05-07 15:12:00,
2013-05-07 10:17:00,69.8,58.3,30.13,WNW,293,2.2,2.7,67,0.00,,,0.00,WUHU216HW,2013-05-07 15:17:00,
2013-05-07 10:22:00,70.4,58.4,30.13,West,270,4.0,4.0,66,0.00,,,0.00,WUHU216HW,2013-05-07 15:22:00,
2013-05-07 10:27:00,70.2,57.9,30.13,WNW,293,2.2,4.0,65,0.00,,,0.00,WUHU216HW,2013-05-07 15:27:00,
2013-05-07 10:32:00,71.1,58.7,30.13,NNW,338,0.7,4.7,65,0.00,,,0.00,WUHU216HW,2013-05-07 15:32:00,
2013-05-07 10:37:00,72.2,58.9,30.13,NW,315,3.6,4.7,63,0.00,,,0.00,WUHU216HW,2013-05-07 15:37:00,
2013-05-07 10:42:00,72.9,59.9,30.13,West,270,0.2,3.6,64,0.00,,,0.00,WUHU216HW,2013-05-07 15:42:00,
2013-05-07 10:47:00,73.8,60.0,30.13,NW,315,2.0,3.6,62,0.00,,,0.00,WUHU216HW,2013-05-07 15:47:00,
2013-05-07 10:52:00,74.2,60.3,30.13,NW,315,0.9,2.2,62,0.00,,,0.00,WUHU216HW,2013-05-07 15:52:00,
2013-05-07 10:57:00,73.8,56.0,30.13,SSW,203,2.5,3.4,54,0.00,,,0.00,WUHU216HW,2013-05-07 15:57:00,
2013-05-07 11:02:00,73.6,57.3,30.13,ESE,113,3.4,3.4,57,0.00,,,0.00,WUHU216HW,2013-05-07 16:02:00,
2013-05-07 11:07:00,74.2,58.4,30.13,SE,135,1.3,3.6,58,0.00,,,0.00,WUHU216HW,2013-05-07 16:07:00,
2013-05-07 11:12:00,75.4,59.7,30.13,ENE,68,0.9,3.6,58,0.00,,,0.00,WUHU216HW,2013-05-07 16:12:00,
2013-05-07 11:17:00,77.0,60.6,30.13,NW,315,1.3,2.5,57,0.00,,,0.00,WUHU216HW,2013-05-07 16:17:00,
2013-05-07 11:22:00,77.4,59.4,30.13,WNW,293,3.6,4.0,54,0.00,,,0.00,WUHU216HW,2013-05-07 16:22:00,
2013-05-07 11:27:00,76.3,58.0,30.13,SE,135,2.9,4.0,53,0.00,,,0.00,WUHU216HW,2013-05-07 16:27:00,
2013-05-07 11:32:00,76.9,59.0,30.13,WNW,293,1.8,3.4,54,0.00,,,0.00,WUHU216HW,2013-05-07 16:32:00,
2013-05-07 11:37:00,77.4,60.0,30.13,SW,225,1.6,2.5,55,0.00,,,0.00,WUHU216HW,2013-05-07 16:37:00,
2013-05-07 11:42:00,77.6,58.6,30.13,SSE,158,2.5,3.8,52,0.00,,,0.00,WUHU216HW,2013-05-07 16:42:00,
2013-05-07 11:47:00,77.0,57.1,30.12,West,270,2.2,3.8,50,0.00,,,0.00,WUHU216HW,2013-05-07 16:47:00,
2013-05-07 11:52:00,77.0,56.4,30.12,SSE,158,3.4,5.1,49,0.00,,,0.00,WUHU216HW,2013-05-07 16:52:00,
2013-05-07 11:57:00,76.7,54.9,30.12,ESE,113,1.3,5.1,47,0.00,,,0.00,WUHU216HW,2013-05-07 16:57:00,
2013-05-07 12:02:00,76.3,55.8,30.12,NW,315,0.4,3.4,49,0.00,,,0.00,WUHU216HW,2013-05-07 17:02:00,
2013-05-07 12:07:00,76.0,54.3,30.12,WSW,248,3.4,3.4,47,0.00,,,0.00,WUHU216HW,2013-05-07 17:07:00,
2013-05-07 12:12:00,76.3,56.9,30.12,WNW,293,1.1,3.4,51,0.00,,,0.00,WUHU216HW,2013-05-07 17:12:00,
2013-05-07 12:17:00,77.6,57.5,30.12,SSE,158,2.7,3.1,50,0.00,,,0.00,WUHU216HW,2013-05-07 17:17:00,
2013-05-07 12:22:00,77.4,56.2,30.11,South,180,1.8,3.1,48,0.00,,,0.00,WUHU216HW,2013-05-07 17:22:00,
2013-05-07 12:27:00,77.2,56.0,30.12,ESE,113,5.4,5.4,48,0.00,,,0.00,WUHU216HW,2013-05-07 17:27:00,
2013-05-07 12:32:00,77.4,55.5,30.11,SSW,203,2.7,5.4,47,0.00,,,0.00,WUHU216HW,2013-05-07 17:32:00,
2013-05-07 12:37:00,77.4,54.9,30.11,SSE,158,5.8,5.8,46,0.00,,,0.00,WUHU216HW,2013-05-07 17:37:00,
2013-05-07 12:42:00,77.2,54.8,30.11,South,180,3.1,5.8,46,0.00,,,0.00,WUHU216HW,2013-05-07 17:42:00,
2013-05-07 12:47:00,77.4,55.5,30.11,SE,135,3.8,4.9,47,0.00,,,0.00,WUHU216HW,2013-05-07 17:47:00,
2013-05-07 12:52:00,77.4,55.5,30.11,South,180,1.8,4.9,47,0.00,,,0.00,WUHU216HW,2013-05-07 17:52:00,
2013-05-07 12:57:00,77.8,55.3,30.11,SE,135,4.7,4.7,46,0.00,,,0.00,WUHU216HW,2013-05-07 17:57:00,
2013-05-07 13:02:00,78.3,55.7,30.11,SW,225,6.5,6.5,46,0.00,,,0.00,WUHU216HW,2013-05-07 18:02:00,
2013-05-07 13:07:00,78.1,53.7,30.10,SW,225,4.7,6.9,43,0.00,,,0.00,WUHU216HW,2013-05-07 18:07:00,
2013-05-07 13:12:00,78.5,54.7,30.10,South,180,3.6,6.9,44,0.00,,,0.00,WUHU216HW,2013-05-07 18:12:00,
2013-05-07 13:17:00,78.7,54.3,30.10,SW,225,3.1,5.4,43,0.00,,,0.00,WUHU216HW,2013-05-07 18:17:00,
2013-05-07 13:22:00,78.7,55.4,30.10,SSW,203,4.0,5.4,45,0.00,,,0.00,WUHU216HW,2013-05-07 18:22:00,
2013-05-07 13:27:00,78.8,54.4,30.10,ESE,113,1.3,4.0,43,0.00,,,0.00,WUHU216HW,2013-05-07 18:27:00,
2013-05-07 13:32:00,79.0,55.2,30.10,West,270,2.2,3.4,44,0.00,,,0.00,WUHU216HW,2013-05-07 18:32:00,
2013-05-07 13:37:00,77.9,52.4,30.10,SSE,158,3.4,3.4,41,0.00,,,0.00,WUHU216HW,2013-05-07 18:37:00,
2013-05-07 13:42:00,78.3,55.2,30.10,WSW,248,1.3,3.4,45,0.00,,,0.00,WUHU216HW,2013-05-07 18:42:00,
2013-05-07 13:47:00,80.1,52.1,30.10,SSW,203,8.5,8.5,38,0.00,,,0.00,WUHU216HW,2013-05-07 18:47:00,
2013-05-07 13:52:00,79.2,52.1,30.09,East,90,0.9,8.5,39,0.00,,,0.00,WUHU216HW,2013-05-07 18:52:00,
2013-05-07 13:57:00,78.3,51.3,30.10,South,180,4.7,7.6,39,0.00,,,0.00,WUHU216HW,2013-05-07 18:57:00,
2013-05-07 14:02:00,77.9,51.8,30.10,SW,225,3.8,4.7,40,0.00,,,0.00,WUHU216HW,2013-05-07 19:02:00,
2013-05-07 14:07:00,77.6,52.0,30.09,WSW,248,1.1,4.7,41,0.00,,,0.00,WUHU216HW,2013-05-07 19:07:00,
2013-05-07 14:12:00,79.6,53.2,30.09,SSW,203,3.8,3.8,40,0.00,,,0.00,WUHU216HW,2013-05-07 19:12:00,
2013-05-07 14:17:00,80.3,52.3,30.09,SSE,158,5.6,6.5,38,0.00,,,0.00,WUHU216HW,2013-05-07 19:17:00,
2013-05-07 14:22:00,80.1,52.1,30.09,SE,135,1.8,6.5,38,0.00,,,0.00,WUHU216HW,2013-05-07 19:22:00,
2013-05-07 14:27:00,79.0,51.9,30.09,South,180,3.8,5.6,39,0.00,,,0.00,WUHU216HW,2013-05-07 19:27:00,
2013-05-07 14:32:00,78.8,53.2,30.09,SSW,203,2.0,4.7,41,0.00,,,0.00,WUHU216HW,2013-05-07 19:32:00,
2013-05-07 14:37:00,79.6,53.2,30.08,SE,135,4.5,4.5,40,0.00,,,0.00,WUHU216HW,2013-05-07 19:37:00,
2013-05-07 14:42:00,80.5,51.7,30.08,NW,315,1.8,4.5,37,0.00,,,0.00,WUHU216HW,2013-05-07 19:42:00,
2013-05-07 14:47:00,81.4,50.1,30.08,SW,225,5.8,5.8,34,0.00,,,0.00,WUHU216HW,2013-05-07 19:47:00,
2013-05-07 14:52:00,80.6,50.3,30.08,SW,225,5.1,5.8,35,0.00,,,0.00,WUHU216HW,2013-05-07 19:52:00,
2013-05-07 14:57:00,79.9,52.0,30.08,SSE,158,2.9,5.1,38,0.00,,,0.00,WUHU216HW,2013-05-07 19:57:00,
2013-05-07 15:02:00,80.6,48.8,30.08,South,180,1.8,5.1,33,0.00,,,0.00,WUHU216HW,2013-05-07 20:02:00,
2013-05-07 15:07:00,81.5,50.3,30.07,SW,225,2.7,3.4,34,0.00,,,0.00,WUHU216HW,2013-05-07 20:07:00,
2013-05-07 15:12:00,81.0,47.5,30.07,SW,225,6.3,6.3,31,0.00,,,0.00,WUHU216HW,2013-05-07 20:12:00,
2013-05-07 15:17:00,80.6,48.8,30.07,SW,225,4.7,6.3,33,0.00,,,0.00,WUHU216HW,2013-05-07 20:17:00,
2013-05-07 15:22:00,80.8,50.5,30.07,SW,225,3.1,6.3,35,0.00,,,0.00,WUHU216HW,2013-05-07 20:22:00,
2013-05-07 15:27:00,80.8,49.7,30.07,NW,315,3.4,4.7,34,0.00,,,0.00,WUHU216HW,2013-05-07 20:27:00,
2013-05-07 15:32:00,79.2,49.1,30.07,SSE,158,4.3,4.3,35,0.00,,,0.00,WUHU216HW,2013-05-07 20:32:00,
2013-05-07 15:37:00,79.0,51.2,30.06,SW,225,4.7,4.7,38,0.00,,,0.00,WUHU216HW,2013-05-07 20:37:00,
2013-05-07 15:42:00,79.4,50.8,30.06,SSW,203,5.4,5.4,37,0.00,,,0.00,WUHU216HW,2013-05-07 20:42:00,
2013-05-07 15:47:00,79.4,50.8,30.06,South,180,2.9,5.4,37,0.00,,,0.00,WUHU216HW,2013-05-07 20:47:00,
2013-05-07 15:52:00,79.6,48.6,30.06,SSW,203,4.7,5.4,34,0.00,,,0.00,WUHU216HW,2013-05-07 20:52:00,
2013-05-07 15:57:00,79.6,48.6,30.06,SSW,203,6.7,9.2,34,0.00,,,0.00,WUHU216HW,2013-05-07 20:57:00,
2013-05-07 16:02:00,79.9,49.7,30.06,SW,225,5.1,9.2,35,0.00,,,0.00,WUHU216HW,2013-05-07 21:02:00,
2013-05-07 16:07:00,79.9,48.2,30.06,SW,225,7.6,7.6,33,0.00,,,0.00,WUHU216HW,2013-05-07 21:07:00,
2013-05-07 16:12:00,79.9,48.2,30.06,SE,135,3.8,7.6,33,0.00,,,0.00,WUHU216HW,2013-05-07 21:12:00,
2013-05-07 16:17:00,80.1,49.1,30.06,ESE,113,4.7,4.7,34,0.00,,,0.00,WUHU216HW,2013-05-07 21:17:00,
2013-05-07 16:22:00,79.6,48.6,30.06,SW,225,4.0,4.7,34,0.00,,,0.00,WUHU216HW,2013-05-07 21:22:00,
2013-05-07 16:27:00,79.2,47.4,30.05,SE,135,3.1,4.7,33,0.00,,,0.00,WUHU216HW,2013-05-07 21:27:00,
2013-05-07 16:32:00,79.2,48.2,30.05,SSE,158,4.5,4.9,34,0.00,,,0.00,WUHU216HW,2013-05-07 21:32:00,
2013-05-07 16:37:00,79.6,49.3,30.05,South,180,1.8,4.9,35,0.00,,,0.00,WUHU216HW,2013-05-07 21:37:00,
2013-05-07 16:42:00,80.8,49.7,30.05,SE,135,4.0,4.7,34,0.00,,,0.00,WUHU216HW,2013-05-07 21:42:00,
2013-05-07 16:47:00,80.6,48.0,30.05,SSE,158,6.5,7.2,32,0.00,,,0.00,WUHU216HW,2013-05-07 21:47:00,
2013-05-07 16:52:00,80.8,48.9,30.05,SSW,203,3.4,7.2,33,0.00,,,0.00,WUHU216HW,2013-05-07 21:52:00,
2013-05-07 16:57:00,81.2,50.0,30.05,SW,225,4.5,6.5,34,0.00,,,0.00,WUHU216HW,2013-05-07 21:57:00,
2013-05-07 17:02:00,81.0,49.9,30.05,WSW,248,2.5,4.5,34,0.00,,,0.00,WUHU216HW,2013-05-07 22:02:00,
2013-05-07 17:07:00,81.7,48.9,30.05,SW,225,2.7,3.1,32,0.00,,,0.00,WUHU216HW,2013-05-07 22:07:00,
2013-05-07 17:12:00,82.1,46.5,30.05,SW,225,6.5,6.5,29,0.00,,,0.00,WUHU216HW,2013-05-07 22:12:00,
2013-05-07 17:17:00,81.7,47.4,30.05,WSW,248,4.5,6.5,30,0.00,,,0.00,WUHU216HW,2013-05-07 22:17:00,
2013-05-07 17:22:00,82.1,48.4,30.05,West,270,2.5,5.6,31,0.00,,,0.00,WUHU216HW,2013-05-07 22:22:00,
2013-05-07 17:27:00,81.9,46.5,30.05,SSW,203,3.4,4.5,29,0.00,,,0.00,WUHU216HW,2013-05-07 22:27:00,
2013-05-07 17:32:00,80.6,46.4,30.05,WSW,248,3.1,4.5,30,0.00,,,0.00,WUHU216HW,2013-05-07 22:32:00,
2013-05-07 17:37:00,80.6,46.4,30.05,SSW,203,2.5,4.5,30,0.00,,,0.00,WUHU216HW,2013-05-07 22:37:00,
2013-05-07 17:42:00,80.3,46.9,30.05,WSW,248,3.4,3.8,31,0.00,,,0.00,WUHU216HW,2013-05-07 22:42:00,
2013-05-07 17:47:00,78.8,47.2,30.05,WNW,293,4.0,4.0,33,0.00,,,0.00,WUHU216HW,2013-05-07 22:47:00,
2013-05-07 17:52:00,78.5,46.1,30.04,SW,225,1.3,4.0,32,0.00,,,0.00,WUHU216HW,2013-05-07 22:52:00,
2013-05-07 17:57:00,78.3,46.7,30.04,SW,225,1.8,3.6,33,0.00,,,0.00,WUHU216HW,2013-05-07 22:57:00,
2013-05-07 18:02:00,78.1,47.4,30.04,West,270,2.5,2.7,34,0.00,,,0.00,WUHU216HW,2013-05-07 23:02:00,
2013-05-07 18:07:00,77.6,46.9,30.04,SW,225,1.3,2.7,34,0.00,,,0.00,WUHU216HW,2013-05-07 23:07:00,
2013-05-07 18:12:00,77.8,47.0,30.04,ESE,113,1.3,2.5,34,0.00,,,0.00,WUHU216HW,2013-05-07 23:12:00,
2013-05-07 18:17:00,77.8,47.0,30.04,South,180,2.7,5.1,34,0.00,,,0.00,WUHU216HW,2013-05-07 23:17:00,
2013-05-07 18:22:00,77.0,46.5,30.03,ESE,113,3.1,5.1,34,0.00,,,0.00,WUHU216HW,2013-05-07 23:22:00,
2013-05-07 18:27:00,76.9,47.0,30.03,East,90,1.6,3.1,35,0.00,,,0.00,WUHU216HW,2013-05-07 23:27:00,
2013-05-07 18:32:00,76.5,46.7,30.03,SE,135,3.8,5.4,35,0.00,,,0.00,WUHU216HW,2013-05-07 23:32:00,
2013-05-07 18:37:00,76.0,46.2,30.03,East,90,1.1,5.4,35,0.00,,,0.00,WUHU216HW,2013-05-07 23:37:00,
2013-05-07 18:42:00,76.0,47.7,30.03,SSW,203,1.6,3.8,37,0.00,,,0.00,WUHU216HW,2013-05-07 23:42:00,
2013-05-07 18:47:00,75.4,47.3,30.03,SE,135,2.0,4.0,37,0.00,,,0.00,WUHU216HW,2013-05-07 23:47:00,
2013-05-07 18:52:00,74.9,47.5,30.03,SSW,203,2.5,4.7,38,0.00,,,0.00,WUHU216HW,2013-05-07 23:52:00,
2013-05-07 18:57:00,74.5,48.7,30.03,SW,225,2.5,4.7,40,0.00,,,0.00,WUHU216HW,2013-05-07 23:57:00,
2013-05-07 19:02:00,74.3,47.8,30.03,South,180,1.3,2.7,39,0.00,,,0.00,WUHU216HW,2013-05-08 00:02:00,
2013-05-07 19:07:00,74.3,47.8,30.03,South,180,0.7,2.0,39,0.00,,,0.00,WUHU216HW,2013-05-08 00:07:00,
2013-05-07 19:12:00,74.3,48.5,30.03,SE,135,1.8,2.0,40,0.00,,,0.00,WUHU216HW,2013-05-08 00:12:00,
2013-05-07 19:17:00,74.2,49.0,30.03,WSW,248,2.5,2.5,41,0.00,,,0.00,WUHU216HW,2013-05-08 00:17:00,
2013-05-07 19:22:00,74.0,48.8,30.03,SSW,203,1.6,2.5,41,0.00,,,0.00,WUHU216HW,2013-05-08 00:22:00,
2013-05-07 19:27:00,73.8,49.2,30.03,South,180,1.3,2.0,42,0.00,,,0.00,WUHU216HW,2013-05-08 00:27:00,
2013-05-07 19:32:00,73.8,48.6,30.03,South,180,1.6,2.5,41,0.00,,,0.00,WUHU216HW,2013-05-08 00:32:00,
2013-05-07 19:37:00,73.4,48.9,30.02,SSW,203,1.1,2.5,42,0.00,,,0.00,WUHU216HW,2013-05-08 00:37:00,
2013-05-07 19:42:00,73.1,49.1,30.03,SSW,203,0.9,2.2,43,0.00,,,0.00,WUHU216HW,2013-05-08 00:42:00,
2013-05-07 19:47:00,72.9,49.0,30.02,South,180,0.7,1.6,43,0.00,,,0.00,WUHU216HW,2013-05-08 00:47:00,
2013-05-07 19:52:00,72.9,49.6,30.02,SSE,158,1.1,1.1,44,0.00,,,0.00,WUHU216HW,2013-05-08 00:52:00,
2013-05-07 19:57:00,72.7,49.4,30.02,SSE,158,0.9,1.1,44,0.00,,,0.00,WUHU216HW,2013-05-08 00:57:00,
2013-05-07 20:02:00,72.4,49.2,30.02,SSE,158,0.7,0.9,44,0.00,,,0.00,WUHU216HW,2013-05-08 01:02:00,
2013-05-07 20:07:00,72.4,49.7,30.02,SE,135,0.7,1.1,45,0.00,,,0.00,WUHU216HW,2013-05-08 01:07:00,
2013-05-07 20:12:00,72.0,50.0,30.03,SE,135,0.0,1.1,46,0.00,,,0.00,WUHU216HW,2013-05-08 01:12:00,
2013-05-07 20:17:00,71.6,50.2,30.03,SE,135,0.0,0.4,47,0.00,,,0.00,WUHU216HW,2013-05-08 01:17:00,
2013-05-07 20:22:00,71.3,50.0,30.03,SE,135,0.0,0.0,47,0.00,,,0.00,WUHU216HW,2013-05-08 01:22:00,
2013-05-07 20:27:00,70.7,50.1,30.03,SE,135,0.2,0.2,48,0.00,,,0.00,WUHU216HW,2013-05-08 01:27:00,
2013-05-07 20:32:00,70.2,50.1,30.03,ESE,113,0.0,0.2,49,0.00,,,0.00,WUHU216HW,2013-05-08 01:32:00,
2013-05-07 20:37:00,69.5,50.0,30.03,ESE,113,0.0,0.7,50,0.00,,,0.00,WUHU216HW,2013-05-08 01:37:00,
2013-05-07 20:42:00,68.9,49.0,30.03,ESE,113,0.4,0.7,49,0.00,,,0.00,WUHU216HW,2013-05-08 01:42:00,
2013-05-07 20:47:00,68.4,49.2,30.03,East,90,1.1,1.1,50,0.00,,,0.00,WUHU216HW,2013-05-08 01:47:00,
2013-05-07 20:52:00,68.0,49.2,30.03,East,90,0.9,1.1,51,0.00,,,0.00,WUHU216HW,2013-05-08 01:52:00,
2013-05-07 20:57:00,67.7,49.0,30.03,East,90,0.7,1.1,51,0.00,,,0.00,WUHU216HW,2013-05-08 01:57:00,
2013-05-07 21:02:00,67.3,49.2,30.03,East,90,0.7,1.1,52,0.00,,,0.00,WUHU216HW,2013-05-08 02:02:00,
2013-05-07 21:07:00,67.1,49.4,30.03,East,90,0.7,0.7,53,0.00,,,0.00,WUHU216HW,2013-05-08 02:07:00,
2013-05-07 21:12:00,66.8,49.2,30.03,East,90,0.4,0.7,53,0.00,,,0.00,WUHU216HW,2013-05-08 02:12:00,
2013-05-07 21:17:00,66.4,49.2,30.03,East,90,0.9,1.1,54,0.00,,,0.00,WUHU216HW,2013-05-08 02:17:00,
2013-05-07 21:22:00,65.9,48.8,30.03,East,90,0.0,1.1,54,0.00,,,0.00,WUHU216HW,2013-05-08 02:22:00,
2013-05-07 21:27:00,65.7,49.1,30.03,East,90,0.7,0.9,55,0.00,,,0.00,WUHU216HW,2013-05-08 02:27:00,
2013-05-07 21:32:00,65.3,49.1,30.03,East,90,0.0,0.7,56,0.00,,,0.00,WUHU216HW,2013-05-08 02:32:00,
2013-05-07 21:37:00,65.2,49.0,30.03,East,90,0.0,0.4,56,0.00,,,0.00,WUHU216HW,2013-05-08 02:37:00,
2013-05-07 21:42:00,64.8,48.6,30.03,East,90,0.0,0.0,56,0.00,,,0.00,WUHU216HW,2013-05-08 02:42:00,
2013-05-07 21:47:00,64.4,48.8,30.03,East,90,0.0,0.0,57,0.00,,,0.00,WUHU216HW,2013-05-08 02:47:00,
2013-05-07 21:52:00,64.1,48.4,30.03,East,90,0.0,0.0,57,0.00,,,0.00,WUHU216HW,2013-05-08 02:52:00,
2013-05-07 21:57:00,63.9,48.8,30.03,East,90,0.0,0.0,58,0.00,,,0.00,WUHU216HW,2013-05-08 02:57:00,
2013-05-07 22:02:00,63.5,48.4,30.03,ESE,113,0.0,0.0,58,0.00,,,0.00,WUHU216HW,2013-05-08 03:02:00,
2013-05-07 22:07:00,63.2,48.6,30.04,SE,135,0.7,0.9,59,0.00,,,0.00,WUHU216HW,2013-05-08 03:07:00,
2013-05-07 22:12:00,62.8,48.8,30.04,SE,135,0.7,1.1,60,0.00,,,0.00,WUHU216HW,2013-05-08 03:12:00,
2013-05-07 22:17:00,62.8,48.8,30.03,SE,135,0.7,1.1,60,0.00,,,0.00,WUHU216HW,2013-05-08 03:17:00,
2013-05-07 22:22:00,62.5,48.4,30.04,SE,135,0.4,0.7,60,0.00,,,0.00,WUHU216HW,2013-05-08 03:22:00,
2013-05-07 22:27:00,62.3,48.7,30.04,ESE,113,1.1,1.1,61,0.00,,,0.00,WUHU216HW,2013-05-08 03:27:00,
2013-05-07 22:32:00,61.9,48.8,30.04,ESE,113,0.9,1.6,62,0.00,,,0.00,WUHU216HW,2013-05-08 03:32:00,
2013-05-07 22:37:00,61.6,48.9,30.04,SE,135,2.9,2.9,63,0.00,,,0.00,WUHU216HW,2013-05-08 03:37:00,
2013-05-07 22:42:00,61.4,49.5,30.04,SE,135,2.7,2.9,65,0.00,,,0.00,WUHU216HW,2013-05-08 03:42:00,
2013-05-07 22:47:00,61.2,49.4,30.04,SE,135,2.0,2.7,65,0.00,,,0.00,WUHU216HW,2013-05-08 03:47:00,
2013-05-07 22:52:00,61.0,49.2,30.04,SE,135,2.7,2.7,65,0.00,,,0.00,WUHU216HW,2013-05-08 03:52:00,
2013-05-07 22:57:00,60.8,49.1,30.04,SE,135,2.5,2.9,65,0.00,,,0.00,WUHU216HW,2013-05-08 03:57:00,
2013-05-07 23:01:00,60.7,48.9,30.04,SE,135,1.8,3.4,65,0.00,,,0.00,WUHU216HW,2013-05-08 04:01:00,
2013-05-07 23:06:00,60.5,48.7,30.04,SSE,158,1.1,3.4,65,0.00,,,0.00,WUHU216HW,2013-05-08 04:06:00,
2013-05-07 23:11:00,60.3,48.5,30.04,South,180,0.0,1.8,65,0.00,,,0.00,WUHU216HW,2013-05-08 04:11:00,
2013-05-07 23:16:00,60.3,49.0,30.04,SSE,158,1.1,1.1,66,0.00,,,0.00,WUHU216HW,2013-05-08 04:16:00,
2013-05-07 23:21:00,60.1,48.8,30.04,SSE,158,1.3,1.8,66,0.00,,,0.00,WUHU216HW,2013-05-08 04:21:00,
2013-05-07 23:26:00,59.9,48.6,30.03,SE,135,0.9,1.8,66,0.00,,,0.00,WUHU216HW,2013-05-08 04:26:00,
2013-05-07 23:31:00,59.8,48.4,30.04,SE,135,1.1,1.6,66,0.00,,,0.00,WUHU216HW,2013-05-08 04:31:00,
2013-05-07 23:36:00,59.6,48.3,30.03,ESE,113,1.3,1.6,66,0.00,,,0.00,WUHU216HW,2013-05-08 04:36:00,
2013-05-07 23:41:00,59.4,48.4,30.03,SE,135,1.1,1.3,67,0.00,,,0.00,WUHU216HW,2013-05-08 04:41:00,
2013-05-07 23:46:00,59.4,48.4,30.03,SE,135,1.1,1.3,67,0.00,,,0.00,WUHU216HW,2013-05-08 04:46:00,
2013-05-07 23:51:00,59.2,48.7,30.03,SE,135,1.1,1.3,68,0.00,,,0.00,WUHU216HW,2013-05-08 04:51:00,
2013-05-07 23:56:00,59.2,48.7,30.03,SE,135,1.1,1.3,68,0.00,,,0.00,WUHU216HW,2013-05-08 04:56:00,